sensor_id;sensor_type;location;lat;lon;timestamp;P1;durP1;ratioP1;P2;durP2;ratioP2
54123;SDS011;55741;53.252;5.788;2023-06-22T00:02:16;93.75;;;20.70;;
54123;SDS011;55741;53.252;5.788;2023-06-22T00:04:43;59.80;;;24.17;;
54123;SDS011;55741;53.252;5.788;2023-06-22T00:07:09;55.40;;;23.40;;
54123;SDS011;55741;53.252;5.788;2023-06-22T00:09:35;29.45;;;23.70;;
54123;SDS011;55741;53.252;5.788;2023-06-22T00:12:01;37.38;;;25.15;;
54123;SDS011;55741;53.252;5.788;2023-06-22T00:14:27;30.52;;;27.25;;
54123;SDS011;55741;53.252;5.788;2023-06-22T00:16:53;89.97;;;37.13;;
54123;SDS011;55741;53.252;5.788;2023-06-22T00:19:21;95.45;;;33.00;;
54123;SDS011;55741;53.252;5.788;2023-06-22T00:21:47;42.55;;;33.08;;
54123;SDS011;55741;53.252;5.788;2023-06-22T00:24:20;89.38;;;37.40;;
54123;SDS011;55741;53.252;5.788;2023-06-22T00:26:50;45.70;;;35.15;;
54123;SDS011;55741;53.252;5.788;2023-06-22T00:29:15;152.70;;;36.75;;
54123;SDS011;55741;53.252;5.788;2023-06-22T00:31:42;169.73;;;39.10;;
54123;SDS011;55741;53.252;5.788;2023-06-22T00:34:08;136.52;;;36.70;;
54123;SDS011;55741;53.252;5.788;2023-06-22T00:36:34;121.68;;;39.65;;
54123;SDS011;55741;53.252;5.788;2023-06-22T00:39:01;96.25;;;41.67;;
54123;SDS011;55741;53.252;5.788;2023-06-22T00:41:27;264.27;;;49.00;;
54123;SDS011;55741;53.252;5.788;2023-06-22T00:43:55;105.50;;;33.88;;
54123;SDS011;55741;53.252;5.788;2023-06-22T00:46:22;231.23;;;37.83;;
54123;SDS011;55741;53.252;5.788;2023-06-22T00:48:50;221.02;;;35.72;;
54123;SDS011;55741;53.252;5.788;2023-06-22T00:51:16;358.75;;;47.55;;
54123;SDS011;55741;53.252;5.788;2023-06-22T00:53:42;86.97;;;36.35;;
54123;SDS011;55741;53.252;5.788;2023-06-22T00:56:09;124.75;;;38.40;;
54123;SDS011;55741;53.252;5.788;2023-06-22T00:58:38;60.80;;;36.72;;
54123;SDS011;55741;53.252;5.788;2023-06-22T01:01:06;56.30;;;34.88;;
54123;SDS011;55741;53.252;5.788;2023-06-22T01:03:33;74.22;;;33.63;;
54123;SDS011;55741;53.252;5.788;2023-06-22T01:06:02;78.90;;;35.00;;
54123;SDS011;55741;53.252;5.788;2023-06-22T01:08:41;36.22;;;31.75;;
54123;SDS011;55741;53.252;5.788;2023-06-22T01:16:22;252.57;;;37.10;;
54123;SDS011;55741;53.252;5.788;2023-06-22T01:18:52;55.40;;;34.38;;
54123;SDS011;55741;53.252;5.788;2023-06-22T01:21:21;49.05;;;29.60;;
54123;SDS011;55741;53.252;5.788;2023-06-22T01:24:06;132.85;;;35.50;;
54123;SDS011;55741;53.252;5.788;2023-06-22T01:29:27;271.00;;;41.25;;
54123;SDS011;55741;53.252;5.788;2023-06-22T01:31:54;112.72;;;39.40;;
54123;SDS011;55741;53.252;5.788;2023-06-22T01:34:22;57.50;;;34.20;;
54123;SDS011;55741;53.252;5.788;2023-06-22T01:36:49;43.75;;;32.55;;
54123;SDS011;55741;53.252;5.788;2023-06-22T01:39:16;125.55;;;34.13;;
54123;SDS011;55741;53.252;5.788;2023-06-22T01:41:43;157.35;;;40.72;;
54123;SDS011;55741;53.252;5.788;2023-06-22T01:44:09;179.07;;;38.35;;
54123;SDS011;55741;53.252;5.788;2023-06-22T01:46:36;115.35;;;34.30;;
54123;SDS011;55741;53.252;5.788;2023-06-22T01:49:06;296.63;;;34.20;;
54123;SDS011;55741;53.252;5.788;2023-06-22T01:51:32;60.15;;;27.55;;
54123;SDS011;55741;53.252;5.788;2023-06-22T01:53:58;33.38;;;22.65;;
54123;SDS011;55741;53.252;5.788;2023-06-22T01:56:24;23.27;;;20.92;;
54123;SDS011;55741;53.252;5.788;2023-06-22T01:58:57;33.72;;;22.38;;
54123;SDS011;55741;53.252;5.788;2023-06-22T02:01:35;167.80;;;28.80;;
54123;SDS011;55741;53.252;5.788;2023-06-22T02:04:08;118.18;;;27.10;;
54123;SDS011;55741;53.252;5.788;2023-06-22T02:06:39;129.35;;;26.02;;
54123;SDS011;55741;53.252;5.788;2023-06-22T02:09:12;82.47;;;25.60;;
54123;SDS011;55741;53.252;5.788;2023-06-22T02:11:42;55.72;;;22.50;;
54123;SDS011;55741;53.252;5.788;2023-06-22T02:14:11;82.95;;;25.10;;
54123;SDS011;55741;53.252;5.788;2023-06-22T02:16:38;48.22;;;27.15;;
54123;SDS011;55741;53.252;5.788;2023-06-22T02:19:05;99.70;;;26.77;;
54123;SDS011;55741;53.252;5.788;2023-06-22T02:21:31;36.63;;;26.33;;
54123;SDS011;55741;53.252;5.788;2023-06-22T02:23:57;27.35;;;24.67;;
54123;SDS011;55741;53.252;5.788;2023-06-22T02:26:24;51.83;;;28.45;;
54123;SDS011;55741;53.252;5.788;2023-06-22T02:28:51;66.32;;;28.98;;
54123;SDS011;55741;53.252;5.788;2023-06-22T02:31:17;169.88;;;30.52;;
54123;SDS011;55741;53.252;5.788;2023-06-22T02:33:43;55.30;;;27.25;;
54123;SDS011;55741;53.252;5.788;2023-06-22T02:36:10;199.93;;;33.08;;
54123;SDS011;55741;53.252;5.788;2023-06-22T02:38:38;163.63;;;35.92;;
54123;SDS011;55741;53.252;5.788;2023-06-22T02:41:13;190.60;;;33.97;;
54123;SDS011;55741;53.252;5.788;2023-06-22T02:43:46;142.75;;;33.45;;
54123;SDS011;55741;53.252;5.788;2023-06-22T02:46:12;308.00;;;38.53;;
54123;SDS011;55741;53.252;5.788;2023-06-22T02:48:41;77.80;;;33.65;;
54123;SDS011;55741;53.252;5.788;2023-06-22T02:51:09;201.30;;;44.35;;
54123;SDS011;55741;53.252;5.788;2023-06-22T02:53:35;46.05;;;31.88;;
54123;SDS011;55741;53.252;5.788;2023-06-22T02:56:03;199.13;;;35.65;;
54123;SDS011;55741;53.252;5.788;2023-06-22T02:58:32;75.45;;;35.95;;
54123;SDS011;55741;53.252;5.788;2023-06-22T03:01:06;208.48;;;37.47;;
54123;SDS011;55741;53.252;5.788;2023-06-22T03:03:32;69.60;;;30.73;;
54123;SDS011;55741;53.252;5.788;2023-06-22T03:05:58;43.35;;;36.13;;
54123;SDS011;55741;53.252;5.788;2023-06-22T03:08:26;55.10;;;35.13;;
54123;SDS011;55741;53.252;5.788;2023-06-22T03:10:51;67.72;;;34.35;;
54123;SDS011;55741;53.252;5.788;2023-06-22T03:13:17;111.00;;;32.78;;
54123;SDS011;55741;53.252;5.788;2023-06-22T03:15:43;343.77;;;41.15;;
54123;SDS011;55741;53.252;5.788;2023-06-22T03:18:09;370.63;;;41.38;;
54123;SDS011;55741;53.252;5.788;2023-06-22T03:20:35;92.13;;;36.80;;
54123;SDS011;55741;53.252;5.788;2023-06-22T03:23:00;406.13;;;45.13;;
54123;SDS011;55741;53.252;5.788;2023-06-22T03:25:26;308.00;;;40.75;;
54123;SDS011;55741;53.252;5.788;2023-06-22T03:27:52;310.48;;;42.90;;
54123;SDS011;55741;53.252;5.788;2023-06-22T03:30:18;94.53;;;30.30;;
54123;SDS011;55741;53.252;5.788;2023-06-22T03:32:44;687.65;;;54.88;;
54123;SDS011;55741;53.252;5.788;2023-06-22T03:35:09;562.25;;;41.25;;
54123;SDS011;55741;53.252;5.788;2023-06-22T03:37:38;396.40;;;42.33;;
54123;SDS011;55741;53.252;5.788;2023-06-22T03:40:04;264.98;;;38.60;;
54123;SDS011;55741;53.252;5.788;2023-06-22T03:42:30;150.60;;;36.38;;
54123;SDS011;55741;53.252;5.788;2023-06-22T03:44:56;371.38;;;52.60;;
54123;SDS011;55741;53.252;5.788;2023-06-22T03:47:22;248.55;;;39.40;;
54123;SDS011;55741;53.252;5.788;2023-06-22T03:49:48;193.45;;;37.75;;
54123;SDS011;55741;53.252;5.788;2023-06-22T03:52:16;361.75;;;42.90;;
54123;SDS011;55741;53.252;5.788;2023-06-22T03:54:42;233.27;;;39.85;;
54123;SDS011;55741;53.252;5.788;2023-06-22T03:57:07;559.10;;;47.85;;
54123;SDS011;55741;53.252;5.788;2023-06-22T03:59:33;218.38;;;34.13;;
54123;SDS011;55741;53.252;5.788;2023-06-22T04:01:59;285.83;;;35.70;;
54123;SDS011;55741;53.252;5.788;2023-06-22T04:04:25;343.73;;;34.78;;
54123;SDS011;55741;53.252;5.788;2023-06-22T04:06:51;344.65;;;41.95;;
54123;SDS011;55741;53.252;5.788;2023-06-22T04:09:16;112.85;;;30.98;;
54123;SDS011;55741;53.252;5.788;2023-06-22T04:11:42;32.05;;;28.83;;
54123;SDS011;55741;53.252;5.788;2023-06-22T04:14:08;124.47;;;32.08;;
54123;SDS011;55741;53.252;5.788;2023-06-22T04:16:34;50.53;;;31.85;;
54123;SDS011;55741;53.252;5.788;2023-06-22T04:19:00;92.75;;;30.02;;
54123;SDS011;55741;53.252;5.788;2023-06-22T04:21:26;51.70;;;28.58;;
54123;SDS011;55741;53.252;5.788;2023-06-22T04:23:51;76.97;;;39.17;;
54123;SDS011;55741;53.252;5.788;2023-06-22T04:26:17;29.98;;;26.83;;
54123;SDS011;55741;53.252;5.788;2023-06-22T04:28:46;42.33;;;29.65;;
54123;SDS011;55741;53.252;5.788;2023-06-22T04:31:17;31.25;;;28.10;;
54123;SDS011;55741;53.252;5.788;2023-06-22T04:33:46;29.73;;;27.05;;
54123;SDS011;55741;53.252;5.788;2023-06-22T04:36:12;26.08;;;23.95;;
54123;SDS011;55741;53.252;5.788;2023-06-22T04:38:38;33.40;;;30.50;;
54123;SDS011;55741;53.252;5.788;2023-06-22T04:41:05;35.95;;;32.28;;
54123;SDS011;55741;53.252;5.788;2023-06-22T04:43:31;36.55;;;32.83;;
54123;SDS011;55741;53.252;5.788;2023-06-22T04:45:58;42.47;;;37.33;;
54123;SDS011;55741;53.252;5.788;2023-06-22T04:48:31;43.17;;;38.58;;
54123;SDS011;55741;53.252;5.788;2023-06-22T04:50:58;38.80;;;34.97;;
54123;SDS011;55741;53.252;5.788;2023-06-22T04:53:30;44.47;;;37.90;;
54123;SDS011;55741;53.252;5.788;2023-06-22T04:55:57;45.85;;;38.95;;
54123;SDS011;55741;53.252;5.788;2023-06-22T04:58:22;36.78;;;33.00;;
54123;SDS011;55741;53.252;5.788;2023-06-22T05:00:48;41.90;;;36.55;;
54123;SDS011;55741;53.252;5.788;2023-06-22T05:03:17;38.30;;;33.35;;
54123;SDS011;55741;53.252;5.788;2023-06-22T05:05:43;42.78;;;33.55;;
54123;SDS011;55741;53.252;5.788;2023-06-22T05:08:09;68.32;;;37.95;;
54123;SDS011;55741;53.252;5.788;2023-06-22T05:10:37;284.85;;;51.25;;
54123;SDS011;55741;53.252;5.788;2023-06-22T05:13:03;45.03;;;36.60;;
54123;SDS011;55741;53.252;5.788;2023-06-22T05:15:28;37.03;;;33.05;;
54123;SDS011;55741;53.252;5.788;2023-06-22T05:17:58;32.00;;;28.73;;
54123;SDS011;55741;53.252;5.788;2023-06-22T05:20:24;49.58;;;30.35;;
54123;SDS011;55741;53.252;5.788;2023-06-22T05:22:50;54.58;;;28.67;;
54123;SDS011;55741;53.252;5.788;2023-06-22T05:25:16;35.58;;;28.45;;
54123;SDS011;55741;53.252;5.788;2023-06-22T05:27:42;48.10;;;29.70;;
54123;SDS011;55741;53.252;5.788;2023-06-22T05:30:09;96.03;;;32.67;;
54123;SDS011;55741;53.252;5.788;2023-06-22T05:32:36;37.75;;;30.48;;
54123;SDS011;55741;53.252;5.788;2023-06-22T05:35:03;33.88;;;30.30;;
54123;SDS011;55741;53.252;5.788;2023-06-22T05:37:29;33.72;;;29.85;;
54123;SDS011;55741;53.252;5.788;2023-06-22T05:39:55;32.67;;;29.15;;
54123;SDS011;55741;53.252;5.788;2023-06-22T05:42:22;30.77;;;27.50;;
54123;SDS011;55741;53.252;5.788;2023-06-22T05:44:48;34.22;;;30.73;;
54123;SDS011;55741;53.252;5.788;2023-06-22T05:47:14;31.95;;;28.48;;
54123;SDS011;55741;53.252;5.788;2023-06-22T05:49:40;35.40;;;29.80;;
54123;SDS011;55741;53.252;5.788;2023-06-22T05:52:06;33.15;;;29.65;;
54123;SDS011;55741;53.252;5.788;2023-06-22T05:54:34;32.38;;;28.83;;
54123;SDS011;55741;53.252;5.788;2023-06-22T05:57:00;33.65;;;29.90;;
54123;SDS011;55741;53.252;5.788;2023-06-22T05:59:26;34.45;;;30.65;;
54123;SDS011;55741;53.252;5.788;2023-06-22T06:01:52;37.80;;;32.17;;
54123;SDS011;55741;53.252;5.788;2023-06-22T06:04:18;41.67;;;32.80;;
54123;SDS011;55741;53.252;5.788;2023-06-22T06:06:44;36.30;;;32.22;;
54123;SDS011;55741;53.252;5.788;2023-06-22T06:09:12;37.50;;;33.10;;
54123;SDS011;55741;53.252;5.788;2023-06-22T06:11:41;37.42;;;33.10;;
54123;SDS011;55741;53.252;5.788;2023-06-22T06:14:07;37.88;;;33.88;;
54123;SDS011;55741;53.252;5.788;2023-06-22T06:16:33;35.92;;;32.13;;
54123;SDS011;55741;53.252;5.788;2023-06-22T06:18:59;35.65;;;31.02;;
54123;SDS011;55741;53.252;5.788;2023-06-22T06:21:25;34.70;;;31.08;;
54123;SDS011;55741;53.252;5.788;2023-06-22T06:23:51;33.83;;;30.17;;
54123;SDS011;55741;53.252;5.788;2023-06-22T06:26:18;34.25;;;30.45;;
54123;SDS011;55741;53.252;5.788;2023-06-22T06:28:53;39.22;;;30.25;;
54123;SDS011;55741;53.252;5.788;2023-06-22T06:31:20;33.38;;;27.52;;
54123;SDS011;55741;53.252;5.788;2023-06-22T06:33:46;32.45;;;27.90;;
54123;SDS011;55741;53.252;5.788;2023-06-22T06:36:12;29.85;;;26.70;;
54123;SDS011;55741;53.252;5.788;2023-06-22T06:38:37;31.33;;;26.25;;
54123;SDS011;55741;53.252;5.788;2023-06-22T06:41:03;29.38;;;24.40;;
54123;SDS011;55741;53.252;5.788;2023-06-22T06:43:29;27.58;;;24.60;;
54123;SDS011;55741;53.252;5.788;2023-06-22T06:45:55;33.22;;;26.25;;
54123;SDS011;55741;53.252;5.788;2023-06-22T06:48:20;25.35;;;22.83;;
54123;SDS011;55741;53.252;5.788;2023-06-22T06:50:46;26.45;;;23.83;;
54123;SDS011;55741;53.252;5.788;2023-06-22T06:53:12;25.35;;;22.65;;
54123;SDS011;55741;53.252;5.788;2023-06-22T06:55:40;27.02;;;23.95;;
54123;SDS011;55741;53.252;5.788;2023-06-22T06:58:06;28.48;;;25.08;;
54123;SDS011;55741;53.252;5.788;2023-06-22T07:00:33;26.42;;;23.50;;
54123;SDS011;55741;53.252;5.788;2023-06-22T07:03:01;25.58;;;23.05;;
54123;SDS011;55741;53.252;5.788;2023-06-22T07:05:27;26.52;;;23.85;;
54123;SDS011;55741;53.252;5.788;2023-06-22T07:07:52;23.85;;;21.35;;
54123;SDS011;55741;53.252;5.788;2023-06-22T07:10:18;26.63;;;23.35;;
54123;SDS011;55741;53.252;5.788;2023-06-22T07:12:44;26.10;;;22.90;;
54123;SDS011;55741;53.252;5.788;2023-06-22T07:15:10;23.58;;;21.05;;
54123;SDS011;55741;53.252;5.788;2023-06-22T07:17:37;23.83;;;21.38;;
54123;SDS011;55741;53.252;5.788;2023-06-22T07:20:07;25.42;;;19.90;;
54123;SDS011;55741;53.252;5.788;2023-06-22T07:22:36;18.50;;;16.58;;
54123;SDS011;55741;53.252;5.788;2023-06-22T07:25:02;22.02;;;19.40;;
54123;SDS011;55741;53.252;5.788;2023-06-22T07:27:38;21.15;;;17.90;;
54123;SDS011;55741;53.252;5.788;2023-06-22T07:30:08;20.67;;;18.45;;
54123;SDS011;55741;53.252;5.788;2023-06-22T07:32:34;27.17;;;19.67;;
54123;SDS011;55741;53.252;5.788;2023-06-22T07:35:01;22.20;;;19.70;;
54123;SDS011;55741;53.252;5.788;2023-06-22T07:37:27;22.42;;;18.45;;
54123;SDS011;55741;53.252;5.788;2023-06-22T07:39:54;21.58;;;17.95;;
54123;SDS011;55741;53.252;5.788;2023-06-22T07:42:24;19.95;;;16.38;;
54123;SDS011;55741;53.252;5.788;2023-06-22T07:44:50;20.52;;;17.77;;
54123;SDS011;55741;53.252;5.788;2023-06-22T07:47:16;19.70;;;16.80;;
54123;SDS011;55741;53.252;5.788;2023-06-22T07:49:46;22.33;;;18.48;;
54123;SDS011;55741;53.252;5.788;2023-06-22T07:52:12;21.10;;;18.90;;
54123;SDS011;55741;53.252;5.788;2023-06-22T07:54:38;20.13;;;17.83;;
54123;SDS011;55741;53.252;5.788;2023-06-22T07:57:05;20.67;;;18.58;;
54123;SDS011;55741;53.252;5.788;2023-06-22T07:59:31;21.45;;;19.27;;
54123;SDS011;55741;53.252;5.788;2023-06-22T08:01:57;20.40;;;18.23;;
54123;SDS011;55741;53.252;5.788;2023-06-22T08:04:23;22.27;;;18.90;;
54123;SDS011;55741;53.252;5.788;2023-06-22T08:06:49;18.85;;;16.80;;
54123;SDS011;55741;53.252;5.788;2023-06-22T08:09:15;19.27;;;16.48;;
54123;SDS011;55741;53.252;5.788;2023-06-22T08:11:40;18.88;;;16.13;;
54123;SDS011;55741;53.252;5.788;2023-06-22T08:14:06;19.73;;;16.85;;
54123;SDS011;55741;53.252;5.788;2023-06-22T08:16:32;19.13;;;17.00;;
54123;SDS011;55741;53.252;5.788;2023-06-22T08:18:58;19.80;;;16.92;;
54123;SDS011;55741;53.252;5.788;2023-06-22T08:21:24;16.88;;;12.88;;
54123;SDS011;55741;53.252;5.788;2023-06-22T08:23:50;21.17;;;17.27;;
54123;SDS011;55741;53.252;5.788;2023-06-22T08:26:16;17.80;;;15.25;;
54123;SDS011;55741;53.252;5.788;2023-06-22T08:28:41;17.42;;;15.00;;
54123;SDS011;55741;53.252;5.788;2023-06-22T08:31:07;16.67;;;13.60;;
54123;SDS011;55741;53.252;5.788;2023-06-22T08:33:33;16.92;;;13.25;;
54123;SDS011;55741;53.252;5.788;2023-06-22T08:35:59;15.98;;;12.07;;
54123;SDS011;55741;53.252;5.788;2023-06-22T08:38:26;14.25;;;11.95;;
54123;SDS011;55741;53.252;5.788;2023-06-22T08:40:52;13.90;;;12.45;;
54123;SDS011;55741;53.252;5.788;2023-06-22T08:43:18;16.00;;;13.65;;
54123;SDS011;55741;53.252;5.788;2023-06-22T08:45:44;16.30;;;13.90;;
54123;SDS011;55741;53.252;5.788;2023-06-22T08:48:09;14.73;;;12.95;;
54123;SDS011;55741;53.252;5.788;2023-06-22T08:50:35;16.60;;;13.40;;
54123;SDS011;55741;53.252;5.788;2023-06-22T08:53:01;15.52;;;12.23;;
54123;SDS011;55741;53.252;5.788;2023-06-22T08:55:27;16.55;;;13.75;;
54123;SDS011;55741;53.252;5.788;2023-06-22T08:57:55;14.13;;;11.75;;
54123;SDS011;55741;53.252;5.788;2023-06-22T09:00:20;13.13;;;11.85;;
54123;SDS011;55741;53.252;5.788;2023-06-22T09:02:47;13.55;;;12.15;;
54123;SDS011;55741;53.252;5.788;2023-06-22T09:05:13;12.73;;;10.98;;
54123;SDS011;55741;53.252;5.788;2023-06-22T09:07:39;12.68;;;10.77;;
54123;SDS011;55741;53.252;5.788;2023-06-22T09:10:06;13.02;;;11.05;;
54123;SDS011;55741;53.252;5.788;2023-06-22T09:12:32;13.07;;;10.52;;
54123;SDS011;55741;53.252;5.788;2023-06-22T09:14:59;14.43;;;12.68;;
54123;SDS011;55741;53.252;5.788;2023-06-22T09:17:25;13.98;;;10.13;;
54123;SDS011;55741;53.252;5.788;2023-06-22T09:19:51;11.82;;;9.00;;
54123;SDS011;55741;53.252;5.788;2023-06-22T09:22:17;12.45;;;10.13;;
54123;SDS011;55741;53.252;5.788;2023-06-22T09:24:43;12.02;;;8.40;;
54123;SDS011;55741;53.252;5.788;2023-06-22T09:27:09;13.05;;;9.23;;
54123;SDS011;55741;53.252;5.788;2023-06-22T09:29:35;10.98;;;8.18;;
54123;SDS011;55741;53.252;5.788;2023-06-22T09:32:01;11.30;;;9.35;;
54123;SDS011;55741;53.252;5.788;2023-06-22T09:34:27;8.88;;;7.13;;
54123;SDS011;55741;53.252;5.788;2023-06-22T09:36:53;11.85;;;10.35;;
54123;SDS011;55741;53.252;5.788;2023-06-22T09:39:20;9.80;;;8.75;;
54123;SDS011;55741;53.252;5.788;2023-06-22T09:41:46;10.30;;;7.47;;
54123;SDS011;55741;53.252;5.788;2023-06-22T09:44:12;9.90;;;6.05;;
54123;SDS011;55741;53.252;5.788;2023-06-22T09:46:37;9.73;;;7.97;;
54123;SDS011;55741;53.252;5.788;2023-06-22T09:49:03;10.57;;;9.50;;
54123;SDS011;55741;53.252;5.788;2023-06-22T09:51:29;10.50;;;8.50;;
54123;SDS011;55741;53.252;5.788;2023-06-22T09:53:55;10.52;;;9.50;;
54123;SDS011;55741;53.252;5.788;2023-06-22T09:56:21;10.73;;;7.35;;
54123;SDS011;55741;53.252;5.788;2023-06-22T09:58:49;12.18;;;8.80;;
54123;SDS011;55741;53.252;5.788;2023-06-22T10:01:17;9.98;;;7.93;;
54123;SDS011;55741;53.252;5.788;2023-06-22T10:03:43;10.32;;;7.35;;
54123;SDS011;55741;53.252;5.788;2023-06-22T10:06:09;9.45;;;8.38;;
54123;SDS011;55741;53.252;5.788;2023-06-22T10:08:35;10.27;;;8.38;;
54123;SDS011;55741;53.252;5.788;2023-06-22T10:11:02;11.65;;;7.90;;
54123;SDS011;55741;53.252;5.788;2023-06-22T10:13:29;11.25;;;8.55;;
54123;SDS011;55741;53.252;5.788;2023-06-22T10:15:55;8.20;;;6.97;;
54123;SDS011;55741;53.252;5.788;2023-06-22T10:18:21;12.23;;;7.00;;
54123;SDS011;55741;53.252;5.788;2023-06-22T10:20:47;10.52;;;7.70;;
54123;SDS011;55741;53.252;5.788;2023-06-22T10:23:16;9.55;;;6.30;;
54123;SDS011;55741;53.252;5.788;2023-06-22T10:25:42;10.23;;;6.78;;
54123;SDS011;55741;53.252;5.788;2023-06-22T10:28:08;9.27;;;5.97;;
54123;SDS011;55741;53.252;5.788;2023-06-22T10:30:34;6.35;;;4.65;;
54123;SDS011;55741;53.252;5.788;2023-06-22T10:33:00;6.95;;;4.85;;
54123;SDS011;55741;53.252;5.788;2023-06-22T10:35:26;6.63;;;5.32;;
54123;SDS011;55741;53.252;5.788;2023-06-22T10:37:52;6.57;;;5.15;;
54123;SDS011;55741;53.252;5.788;2023-06-22T10:40:19;6.82;;;5.22;;
54123;SDS011;55741;53.252;5.788;2023-06-22T10:42:45;10.32;;;5.22;;
54123;SDS011;55741;53.252;5.788;2023-06-22T10:45:11;9.52;;;6.10;;
54123;SDS011;55741;53.252;5.788;2023-06-22T10:47:37;7.53;;;5.32;;
54123;SDS011;55741;53.252;5.788;2023-06-22T10:50:03;8.30;;;5.95;;
54123;SDS011;55741;53.252;5.788;2023-06-22T10:52:29;7.18;;;6.47;;
54123;SDS011;55741;53.252;5.788;2023-06-22T10:54:55;8.63;;;6.60;;
54123;SDS011;55741;53.252;5.788;2023-06-22T10:57:21;9.18;;;7.68;;
54123;SDS011;55741;53.252;5.788;2023-06-22T10:59:49;12.38;;;7.20;;
54123;SDS011;55741;53.252;5.788;2023-06-22T11:02:15;9.15;;;7.15;;
54123;SDS011;55741;53.252;5.788;2023-06-22T11:04:40;9.18;;;6.53;;
54123;SDS011;55741;53.252;5.788;2023-06-22T11:07:06;11.27;;;6.90;;
54123;SDS011;55741;53.252;5.788;2023-06-22T11:09:32;8.35;;;7.10;;
54123;SDS011;55741;53.252;5.788;2023-06-22T11:11:58;10.00;;;7.03;;
54123;SDS011;55741;53.252;5.788;2023-06-22T11:14:24;9.82;;;7.10;;
54123;SDS011;55741;53.252;5.788;2023-06-22T11:16:50;7.13;;;6.40;;
54123;SDS011;55741;53.252;5.788;2023-06-22T11:19:16;8.60;;;7.28;;
54123;SDS011;55741;53.252;5.788;2023-06-22T11:21:43;8.70;;;7.80;;
54123;SDS011;55741;53.252;5.788;2023-06-22T11:24:09;10.75;;;7.53;;
54123;SDS011;55741;53.252;5.788;2023-06-22T11:26:35;8.63;;;6.70;;
54123;SDS011;55741;53.252;5.788;2023-06-22T11:29:02;7.93;;;6.72;;
54123;SDS011;55741;53.252;5.788;2023-06-22T11:31:31;8.80;;;7.90;;
54123;SDS011;55741;53.252;5.788;2023-06-22T11:34:00;11.88;;;7.80;;
54123;SDS011;55741;53.252;5.788;2023-06-22T11:36:26;8.98;;;7.40;;
54123;SDS011;55741;53.252;5.788;2023-06-22T11:38:52;7.47;;;6.50;;
54123;SDS011;55741;53.252;5.788;2023-06-22T11:41:18;7.18;;;5.93;;
54123;SDS011;55741;53.252;5.788;2023-06-22T11:43:44;7.20;;;5.13;;
54123;SDS011;55741;53.252;5.788;2023-06-22T11:46:10;8.70;;;6.05;;
54123;SDS011;55741;53.252;5.788;2023-06-22T11:48:36;7.63;;;5.00;;
54123;SDS011;55741;53.252;5.788;2023-06-22T11:51:03;10.70;;;6.15;;
54123;SDS011;55741;53.252;5.788;2023-06-22T11:53:29;8.90;;;5.20;;
54123;SDS011;55741;53.252;5.788;2023-06-22T11:55:55;7.20;;;5.20;;
54123;SDS011;55741;53.252;5.788;2023-06-22T11:58:22;9.73;;;6.63;;
54123;SDS011;55741;53.252;5.788;2023-06-22T12:00:49;4.60;;;3.85;;
54123;SDS011;55741;53.252;5.788;2023-06-22T12:03:17;4.43;;;3.40;;
54123;SDS011;55741;53.252;5.788;2023-06-22T12:05:43;7.63;;;4.57;;
54123;SDS011;55741;53.252;5.788;2023-06-22T12:08:09;6.85;;;4.65;;
54123;SDS011;55741;53.252;5.788;2023-06-22T12:10:35;7.57;;;5.05;;
54123;SDS011;55741;53.252;5.788;2023-06-22T12:13:00;5.90;;;4.35;;
54123;SDS011;55741;53.252;5.788;2023-06-22T12:15:26;5.30;;;3.90;;
54123;SDS011;55741;53.252;5.788;2023-06-22T12:17:52;6.22;;;4.50;;
54123;SDS011;55741;53.252;5.788;2023-06-22T12:20:18;5.15;;;4.35;;
54123;SDS011;55741;53.252;5.788;2023-06-22T12:22:44;7.88;;;4.38;;
54123;SDS011;55741;53.252;5.788;2023-06-22T12:25:10;5.90;;;3.30;;
54123;SDS011;55741;53.252;5.788;2023-06-22T12:27:36;6.63;;;3.15;;
54123;SDS011;55741;53.252;5.788;2023-06-22T12:30:03;5.35;;;3.50;;
54123;SDS011;55741;53.252;5.788;2023-06-22T12:32:29;4.25;;;2.97;;
54123;SDS011;55741;53.252;5.788;2023-06-22T12:34:56;4.68;;;2.63;;
54123;SDS011;55741;53.252;5.788;2023-06-22T12:37:22;4.07;;;2.60;;
54123;SDS011;55741;53.252;5.788;2023-06-22T12:39:48;4.93;;;2.35;;
54123;SDS011;55741;53.252;5.788;2023-06-22T12:42:15;3.42;;;2.50;;
54123;SDS011;55741;53.252;5.788;2023-06-22T12:44:41;4.97;;;2.50;;
54123;SDS011;55741;53.252;5.788;2023-06-22T12:47:08;4.35;;;2.83;;
54123;SDS011;55741;53.252;5.788;2023-06-22T12:49:37;4.25;;;2.90;;
54123;SDS011;55741;53.252;5.788;2023-06-22T12:52:03;3.80;;;2.78;;
54123;SDS011;55741;53.252;5.788;2023-06-22T12:54:34;6.40;;;3.00;;
54123;SDS011;55741;53.252;5.788;2023-06-22T12:57:00;4.18;;;2.80;;
54123;SDS011;55741;53.252;5.788;2023-06-22T12:59:26;5.03;;;2.70;;
54123;SDS011;55741;53.252;5.788;2023-06-22T13:01:54;4.13;;;2.70;;
54123;SDS011;55741;53.252;5.788;2023-06-22T13:04:20;7.00;;;3.00;;
54123;SDS011;55741;53.252;5.788;2023-06-22T13:06:46;3.65;;;2.60;;
54123;SDS011;55741;53.252;5.788;2023-06-22T13:09:17;5.35;;;2.50;;
54123;SDS011;55741;53.252;5.788;2023-06-22T13:11:44;6.45;;;2.63;;
54123;SDS011;55741;53.252;5.788;2023-06-22T13:14:10;6.70;;;2.60;;
54123;SDS011;55741;53.252;5.788;2023-06-22T13:16:36;8.50;;;2.53;;
54123;SDS011;55741;53.252;5.788;2023-06-22T13:19:01;5.40;;;2.58;;
54123;SDS011;55741;53.252;5.788;2023-06-22T13:21:27;3.00;;;2.30;;
54123;SDS011;55741;53.252;5.788;2023-06-22T13:23:53;9.05;;;3.13;;
54123;SDS011;55741;53.252;5.788;2023-06-22T13:26:20;7.80;;;3.65;;
54123;SDS011;55741;53.252;5.788;2023-06-22T13:28:46;5.00;;;2.72;;
54123;SDS011;55741;53.252;5.788;2023-06-22T13:31:12;9.65;;;4.45;;
54123;SDS011;55741;53.252;5.788;2023-06-22T13:33:38;4.95;;;2.92;;
54123;SDS011;55741;53.252;5.788;2023-06-22T13:36:06;6.35;;;3.03;;
54123;SDS011;55741;53.252;5.788;2023-06-22T13:38:33;4.75;;;3.30;;
54123;SDS011;55741;53.252;5.788;2023-06-22T13:41:03;4.35;;;2.90;;
54123;SDS011;55741;53.252;5.788;2023-06-22T13:43:30;6.10;;;2.80;;
54123;SDS011;55741;53.252;5.788;2023-06-22T13:45:56;4.53;;;2.22;;
54123;SDS011;55741;53.252;5.788;2023-06-22T13:48:21;5.10;;;2.47;;
54123;SDS011;55741;53.252;5.788;2023-06-22T13:50:48;4.65;;;2.38;;
54123;SDS011;55741;53.252;5.788;2023-06-22T13:53:14;4.47;;;2.53;;
54123;SDS011;55741;53.252;5.788;2023-06-22T13:55:40;6.82;;;2.70;;
54123;SDS011;55741;53.252;5.788;2023-06-22T13:58:06;3.50;;;2.50;;
54123;SDS011;55741;53.252;5.788;2023-06-22T14:00:32;3.65;;;2.38;;
54123;SDS011;55741;53.252;5.788;2023-06-22T14:02:59;3.97;;;2.42;;
54123;SDS011;55741;53.252;5.788;2023-06-22T14:05:25;8.00;;;4.40;;
54123;SDS011;55741;53.252;5.788;2023-06-22T14:07:51;9.35;;;2.92;;
54123;SDS011;55741;53.252;5.788;2023-06-22T14:10:17;5.93;;;3.13;;
54123;SDS011;55741;53.252;5.788;2023-06-22T14:12:43;4.50;;;2.80;;
54123;SDS011;55741;53.252;5.788;2023-06-22T14:15:09;5.20;;;2.63;;
54123;SDS011;55741;53.252;5.788;2023-06-22T14:17:35;4.97;;;2.72;;
54123;SDS011;55741;53.252;5.788;2023-06-22T14:20:01;5.13;;;2.85;;
54123;SDS011;55741;53.252;5.788;2023-06-22T14:22:28;6.28;;;2.90;;
54123;SDS011;55741;53.252;5.788;2023-06-22T14:24:55;7.63;;;3.40;;
54123;SDS011;55741;53.252;5.788;2023-06-22T14:27:22;7.95;;;3.58;;
54123;SDS011;55741;53.252;5.788;2023-06-22T14:29:48;6.78;;;3.08;;
54123;SDS011;55741;53.252;5.788;2023-06-22T14:32:14;10.63;;;3.38;;
54123;SDS011;55741;53.252;5.788;2023-06-22T14:34:40;9.65;;;2.97;;